createdAt,value
2023-02-19T00:03:08.791Z,67
2023-02-19T00:13:08.774Z,67
2023-02-19T00:23:08.744Z,67
2023-02-19T00:33:09.141Z,67
2023-02-19T00:43:08.744Z,67
2023-02-19T00:53:08.734Z,68
2023-02-19T01:03:08.717Z,68
2023-02-19T01:13:09.109Z,68
2023-02-19T01:23:08.692Z,68
2023-02-19T01:33:08.661Z,68
2023-02-19T01:43:08.662Z,68
2023-02-19T01:53:08.641Z,68
2023-02-19T02:03:08.644Z,69
2023-02-19T02:13:08.639Z,69
2023-02-19T02:23:08.631Z,71
2023-02-19T02:33:08.603Z,72
2023-02-19T02:43:08.604Z,73
2023-02-19T02:53:08.595Z,74
2023-02-19T03:03:09.005Z,74
2023-02-19T03:13:08.984Z,75
2023-02-19T03:23:08.584Z,76
2023-02-19T03:33:08.585Z,77
2023-02-19T03:43:08.553Z,78
2023-02-19T03:53:08.529Z,79
2023-02-19T04:03:08.550Z,79
2023-02-19T04:13:08.521Z,80
2023-02-19T04:23:08.526Z,80
2023-02-19T04:33:08.497Z,81
2023-02-19T04:43:08.498Z,82
2023-02-19T04:53:08.497Z,82
2023-02-19T05:03:08.493Z,82
2023-02-19T05:13:08.483Z,83
2023-02-19T05:23:08.467Z,83
2023-02-19T05:33:08.472Z,82
2023-02-19T05:43:08.448Z,82
2023-02-19T05:53:08.438Z,82
2023-02-19T06:03:08.442Z,82
2023-02-19T06:13:08.428Z,82
2023-02-19T06:23:08.430Z,82
2023-02-19T06:33:08.854Z,82
2023-02-19T06:43:08.432Z,82
2023-02-19T06:53:08.843Z,82
2023-02-19T07:03:08.378Z,82
2023-02-19T07:13:08.391Z,82
2023-02-19T07:23:08.384Z,83
2023-02-19T07:33:10.465Z,84
2023-02-19T07:43:08.359Z,84
2023-02-19T07:53:08.329Z,83
2023-02-19T08:03:08.348Z,81
2023-02-19T08:13:08.312Z,79
2023-02-19T08:23:08.298Z,78
2023-02-19T08:33:08.303Z,77
2023-02-19T08:43:08.300Z,75
2023-02-19T08:53:08.244Z,72
2023-02-19T09:03:08.254Z,70
2023-02-19T09:13:08.209Z,68
2023-02-19T09:23:10.125Z,67
2023-02-19T09:33:08.638Z,66
2023-02-19T09:43:08.177Z,66
2023-02-19T09:53:08.166Z,66
2023-02-19T10:03:08.164Z,66
2023-02-19T10:13:08.134Z,65
2023-02-19T10:23:08.157Z,64
2023-02-19T10:33:08.553Z,63
2023-02-19T10:43:08.106Z,61
2023-02-19T10:53:08.114Z,60
2023-02-19T11:03:08.068Z,59
2023-02-19T11:13:08.047Z,57
2023-02-19T11:23:08.013Z,55
2023-02-19T11:33:08.004Z,55
2023-02-19T11:43:08.005Z,54
2023-02-19T11:53:08.397Z,53
2023-02-19T12:03:07.970Z,52
2023-02-19T12:13:07.943Z,52
2023-02-19T12:23:07.913Z,52
2023-02-19T12:33:07.913Z,51
2023-02-19T12:43:07.892Z,51
2023-02-19T12:53:07.896Z,49
2023-02-19T13:03:08.304Z,50
2023-02-19T13:13:07.824Z,51
2023-02-19T13:23:07.825Z,52
2023-02-19T13:33:07.832Z,53
2023-02-19T13:43:07.826Z,54
2023-02-19T13:53:07.769Z,55
2023-02-19T14:03:07.771Z,57
2023-02-19T14:13:07.760Z,59
2023-02-19T14:23:07.738Z,60
2023-02-19T14:33:10.949Z,61
2023-02-19T14:43:07.702Z,62
2023-02-19T14:53:07.692Z,63
2023-02-19T15:03:07.684Z,64
2023-02-19T15:13:07.664Z,64
2023-02-19T15:23:07.650Z,64
2023-02-19T15:33:07.638Z,64
2023-02-19T15:43:08.061Z,64
2023-02-19T15:53:07.632Z,63
2023-02-19T16:03:07.644Z,64
2023-02-19T16:13:07.583Z,66
2023-02-19T16:23:07.581Z,67
2023-02-19T16:33:07.971Z,68
2023-02-19T16:43:07.563Z,69
2023-02-19T16:53:07.544Z,70
2023-02-19T17:03:07.517Z,70
2023-02-19T17:13:07.500Z,70
2023-02-19T17:23:07.479Z,70
2023-02-19T17:33:07.473Z,70
2023-02-19T17:43:07.455Z,70
2023-02-19T17:53:07.458Z,70
2023-02-19T18:03:07.472Z,70
2023-02-19T18:13:07.434Z,70
2023-02-19T18:23:07.414Z,70
2023-02-19T18:33:07.408Z,70
2023-02-19T18:43:07.406Z,70
2023-02-19T18:53:07.362Z,70
2023-02-19T19:03:07.781Z,70
2023-02-19T19:13:07.368Z,70
2023-02-19T19:23:07.355Z,70
2023-02-19T19:33:07.322Z,70
2023-02-19T19:43:07.743Z,69
2023-02-19T19:53:07.300Z,69
2023-02-19T20:03:07.286Z,69
2023-02-19T20:13:07.306Z,69
2023-02-19T20:23:07.257Z,69
2023-02-19T20:33:07.258Z,69
2023-02-19T20:43:07.242Z,69
2023-02-19T20:53:07.656Z,69
2023-02-19T21:03:07.290Z,69
2023-02-19T21:13:07.222Z,69
2023-02-19T21:23:07.209Z,69
2023-02-19T21:33:07.174Z,70
2023-02-19T21:43:07.180Z,70
2023-02-19T21:53:07.156Z,70
2023-02-19T22:03:07.187Z,70
2023-02-19T22:13:07.126Z,70
2023-02-19T22:23:07.527Z,70
2023-02-19T22:33:07.166Z,70
2023-02-19T22:43:07.084Z,70
2023-02-19T22:53:07.102Z,70
2023-02-19T23:03:07.474Z,70
2023-02-19T23:13:08.973Z,70
2023-02-19T23:23:07.052Z,70
2023-02-19T23:33:07.045Z,71
2023-02-19T23:43:07.020Z,71
2023-02-19T23:53:07.035Z,72
